Latest Weather Observations for Portland Harbour

IDV60801

Issued at 1:31 pm EST Friday 6 May 2016 (issued every 30 minutes, with the page automatically refreshed every 10 minutes)

About weather observations | Map of weather stations | Latest weather observations for VIC | Other Formats
Station Details ID: 090192 Name: PORTLAND NTC AWS Lat: -38.34 Lon: 141.61 Height: 0.0 m
Data from the previous 72 hours. | See also: Recent months for locations in Victoria
Date/Time
EST
Temp
°C
App
Temp
°C
Dew
Point
Rel
Hum
%
Delta-T
°C
Wind Press
QNH
hPa
Press
MSL
hPa
Rain
since 9 am
mm
Dir
 
Spd
km/h
Gust
km/h
Spd
kts
Gust
kts
06/01:30pm 17.3 - - - - W 17 24 9 13 1014.1 1014.1 -
06/01:00pm 17.2 - - - - WNW 20 30 11 16 1014.0 1014.0 -
06/12:30pm 17.1 - - - - WNW 19 28 10 15 1014.2 1014.2 -
06/12:00pm 16.9 - - - - WNW 17 26 9 14 1014.5 1014.5 -
06/11:30am 16.9 - - - - W 15 22 8 12 1014.6 1014.6 -
06/11:00am 16.6 - - - - WSW 13 22 7 12 1014.7 1014.7 -
06/10:30am 15.9 - - - - WSW 13 17 7 9 1014.5 1014.5 -
06/10:00am 15.2 - - - - WSW 9 13 5 7 1014.5 1014.5 -
06/09:30am 15.4 - - - - NW 7 11 4 6 1014.5 1014.5 -
06/09:00am 14.9 - - - - WNW 7 13 4 7 1014.2 1014.2 -
06/08:30am 14.5 - - - - NW 9 13 5 7 1013.9 1013.9 -
06/08:00am 14.7 - - - - NNW 11 13 6 7 1013.3 1013.3 -
06/07:30am 14.8 - - - - NNW 11 13 6 7 1012.9 1012.9 -
06/07:00am 14.8 - - - - NNW 11 13 6 7 1012.5 1012.5 -
06/06:30am 15.0 - - - - NW 7 9 4 5 1012.3 1012.3 -
06/06:00am 14.9 - - - - W 4 9 2 5 1012.0 1012.0 -
06/05:30am 15.0 - - - - WNW 7 11 4 6 1011.5 1011.5 -
06/05:00am 14.9 - - - - W 7 11 4 6 1011.3 1011.3 -
06/04:30am 15.5 - - - - NW 7 13 4 7 1010.9 1010.9 -
06/04:00am 15.9 - - - - NNW 11 19 6 10 1010.6 1010.6 -
06/03:30am 16.1 - - - - NW 9 15 5 8 1010.6 1010.6 -
06/03:00am 16.5 - - - - NNW 13 17 7 9 1010.4 1010.4 -
06/02:30am 17.1 - - - - NW 13 22 7 12 1010.3 1010.3 -
06/02:00am 17.4 - - - - NW 15 20 8 11 1010.1 1010.1 -
06/01:30am 17.7 - - - - NW 15 22 8 12 1010.0 1010.0 -
06/01:00am 18.3 - - - - WNW 19 28 10 15 1009.8 1009.8 -
06/12:30am 19.2 - - - - WNW 20 28 11 15 1009.6 1009.6 -
06/12:00am 19.8 - - - - NNW 22 32 12 17 1009.3 1009.3 -
 
Date/Time
EST
Temp
°C
App
Temp
°C
Dew
Point
Rel
Hum
%
Delta-T
°C
Wind Press
QNH
hPa
Press
MSL
hPa
Rain
since 9 am
mm
Dir
 
Spd
km/h
Gust
km/h
Spd
kts
Gust
kts
05/11:30pm 19.3 - - - - NNW 22 28 12 15 1009.2 1009.2 -
05/11:00pm 19.2 - - - - NNW 20 28 11 15 1009.5 1009.5 -
05/10:30pm 19.1 - - - - NNW 20 30 11 16 1009.4 1009.4 -
05/10:00pm 19.0 - - - - NNW 24 32 13 17 1009.4 1009.4 -
05/09:30pm 19.2 - - - - NNW 24 35 13 19 1009.3 1009.3 -
05/09:00pm 19.3 - - - - NW 22 35 12 19 1009.4 1009.4 -
05/08:30pm 19.1 - - - - NNW 26 32 14 17 1009.2 1009.2 -
05/08:00pm 18.6 - - - - NNW 22 28 12 15 1009.2 1009.2 -
05/07:30pm 18.5 - - - - NNW 22 26 12 14 1009.2 1009.2 -
05/07:00pm 19.1 - - - - NNW 22 30 12 16 1009.0 1009.0 -
05/06:30pm 19.5 - - - - NNW 22 28 12 15 1008.8 1008.8 -
05/06:00pm 19.7 - - - - NNW 19 24 10 13 1008.6 1008.6 -
05/05:30pm 20.1 - - - - NNW 22 32 12 17 1008.4 1008.4 -
05/05:00pm 20.5 - - - - NW 26 41 14 22 1008.5 1008.5 -
05/04:30pm 20.9 - - - - NW 32 56 17 30 1008.3 1008.3 -
05/04:25pm 21.0 - - - - NW 28 46 15 25 1008.4 1008.4 -
05/04:00pm 20.9 - - - - NW 28 44 15 24 1008.3 1008.3 -
05/03:40pm 21.0 - - - - NW 28 48 15 26 1008.3 1008.3 -
05/03:30pm 20.9 - - - - NW 30 43 16 23 1008.4 1008.4 -
05/03:00pm 20.7 - - - - NW 28 43 15 23 1008.4 1008.4 -
05/02:30pm 20.5 - - - - NW 33 52 18 28 1008.4 1008.4 -
05/02:00pm 19.9 - - - - NNW 37 61 20 33 1008.6 1008.6 -
05/01:40pm 19.8 - - - - NW 35 61 19 33 1008.9 1008.9 -
05/01:30pm 19.7 - - - - NNW 30 44 16 24 1008.9 1008.9 -
05/01:00pm 19.3 - - - - NNW 39 63 21 34 1009.1 1009.1 -
05/12:30pm 19.2 - - - - NW 30 52 16 28 1009.6 1009.6 -
05/12:10pm 19.1 - - - - NNW 37 57 20 31 1009.8 1009.8 -
05/12:00pm 18.9 - - - - NNW 39 54 21 29 1009.9 1009.9 -
05/11:42am 18.8 - - - - NNW 35 54 19 29 1010.4 1010.4 -
05/11:30am 18.8 - - - - NW 32 48 17 26 1010.6 1010.6 -
05/11:05am 18.6 - - - - NNW 37 63 20 34 1010.9 1010.9 -
05/11:00am 18.5 - - - - NNW 35 50 19 27 1011.0 1011.0 -
05/10:30am 18.3 - - - - NNW 35 57 19 31 1011.0 1011.0 -
05/10:28am 18.5 - - - - NNW 35 57 19 31 1011.0 1011.0 -
05/10:00am 18.0 - - - - NNW 32 48 17 26 1011.3 1011.3 -
05/09:59am 18.0 - - - - NW 30 48 16 26 1011.4 1011.4 -
05/09:30am 17.2 - - - - NNW 32 44 17 24 1011.6 1011.6 -
05/09:00am 16.9 - - - - NNW 39 50 21 27 1011.6 1011.6 -
05/08:44am 16.5 - - - - NNW 32 50 17 27 1011.6 1011.6 -
05/08:30am 16.3 - - - - NNW 28 39 15 21 1011.7 1011.7 -
05/08:00am 15.5 - - - - NNW 24 30 13 16 1011.6 1011.6 -
05/07:30am 15.5 - - - - NNW 24 32 13 17 1011.5 1011.5 -
05/07:00am 15.6 - - - - NNW 28 35 15 19 1011.4 1011.4 -
05/06:30am 15.8 - - - - NNW 30 37 16 20 1011.4 1011.4 -
05/06:00am 15.9 - - - - NNW 30 39 16 21 1011.5 1011.5 -
05/05:30am 15.6 - - - - NNW 20 26 11 14 1011.4 1011.4 -
05/05:00am 15.4 - - - - NNW 24 35 13 19 1011.3 1011.3 -
05/04:30am 15.4 - - - - NNW 28 39 15 21 1011.3 1011.3 -
05/04:00am 15.4 - - - - NNW 26 32 14 17 1011.3 1011.3 -
05/03:30am 15.5 - - - - NNW 30 43 16 23 1011.6 1011.6 -
05/03:00am 15.7 - - - - NNW 30 39 16 21 1011.7 1011.7 -
05/02:30am 15.7 - - - - NNW 30 41 16 22 1011.7 1011.7 -
05/02:00am 15.6 - - - - NNW 28 43 15 23 1011.7 1011.7 -
05/01:30am 15.4 - - - - NNW 26 39 14 21 1011.8 1011.8 -
05/01:00am 15.1 - - - - NNW 24 37 13 20 1012.0 1012.0 -
05/12:30am 15.1 - - - - NNW 26 37 14 20 1012.1 1012.1 -
05/12:00am 15.0 - - - - NNW 26 37 14 20 1012.2 1012.2 -
 
Date/Time
EST
Temp
°C
App
Temp
°C
Dew
Point
Rel
Hum
%
Delta-T
°C
Wind Press
QNH
hPa
Press
MSL
hPa
Rain
since 9 am
mm
Dir
 
Spd
km/h
Gust
km/h
Spd
kts
Gust
kts
04/11:30pm 14.7 - - - - NNW 24 33 13 18 1012.4 1012.4 -
04/11:00pm 14.7 - - - - NNW 26 35 14 19 1012.6 1012.6 -
04/10:30pm 14.5 - - - - NNW 24 35 13 19 1012.7 1012.7 -
04/10:00pm 14.6 - - - - NNW 22 33 12 18 1012.9 1012.9 -
04/09:30pm 14.5 - - - - NNW 24 32 13 17 1013.1 1013.1 -
04/09:00pm 14.3 - - - - NNW 20 28 11 15 1013.2 1013.2 -
04/08:30pm 14.3 - - - - NNW 19 26 10 14 1013.0 1013.0 -
04/08:00pm 14.3 - - - - NNW 19 26 10 14 1012.9 1012.9 -
04/07:30pm 14.2 - - - - NNW 19 24 10 13 1012.7 1012.7 -
04/07:00pm 14.6 - - - - NNW 19 22 10 12 1012.5 1012.5 -
04/06:30pm 14.7 - - - - N 17 19 9 10 1012.4 1012.4 -
04/06:00pm 14.8 - - - - NNW 15 19 8 10 1012.2 1012.2 -
04/05:30pm 15.2 - - - - NW 17 22 9 12 1012.0 1012.0 -
04/05:00pm 15.6 - - - - NW 17 22 9 12 1011.7 1011.7 -
04/04:30pm 15.8 - - - - NNW 19 28 10 15 1011.4 1011.4 -
04/04:00pm 16.0 - - - - NW 20 30 11 16 1011.3 1011.3 -
04/03:30pm 15.9 - - - - NW 26 46 14 25 1011.5 1011.5 -
04/03:28pm 15.9 - - - - NW 28 46 15 25 1011.5 1011.5 -
04/03:00pm 15.6 - - - - NW 22 37 12 20 1011.5 1011.5 -
04/02:30pm 15.7 - - - - NW 24 39 13 21 1011.5 1011.5 -
04/02:00pm 15.6 - - - - NNW 24 39 13 21 1011.7 1011.7 -
04/01:30pm 15.3 - - - - NW 28 41 15 22 1012.0 1012.0 -
04/01:00pm 14.9 - - - - NW 26 46 14 25 1012.4 1012.4 -
04/12:30pm 14.7 - - - - NW 26 39 14 21 1012.8 1012.8 -
04/12:00pm 14.4 - - - - NW 22 37 12 20 1013.2 1013.2 -
04/11:30am 14.0 - - - - NW 22 35 12 19 1013.4 1013.4 -
04/11:00am 13.4 - - - - NNW 22 32 12 17 1013.7 1013.7 -
04/10:30am 12.3 - - - - NNW 20 26 11 14 1013.4 1013.4 -
04/10:00am 11.8 - - - - WNW 17 26 9 14 1013.7 1013.7 -
04/09:30am 11.8 - - - - NNW 20 28 11 15 1013.3 1013.3 -
04/09:00am 10.7 - - - - NNW 19 24 10 13 1013.1 1013.1 -
04/08:30am 9.9 - - - - NW 13 20 7 11 1013.2 1013.2 -
04/08:00am 9.3 - - - - W 9 17 5 9 1012.8 1012.8 -
04/07:30am 9.8 - - - - NW 19 24 10 13 1012.1 1012.1 -
04/07:00am 9.4 - - - - NW 13 22 7 12 1011.8 1011.8 -
04/06:30am 9.7 - - - - NW 11 17 6 9 1011.5 1011.5 -
04/06:00am 9.9 - - - - NNW 19 24 10 13 1011.2 1011.2 -
04/05:30am 9.9 - - - - NNW 20 26 11 14 1010.9 1010.9 -
04/05:00am 10.2 - - - - NNW 19 24 10 13 1010.5 1010.5 -
04/04:30am 10.1 - - - - NNW 19 24 10 13 1010.1 1010.1 -
04/04:00am 10.7 - - - - NNW 15 19 8 10 1010.0 1010.0 -
04/03:30am 11.5 - - - - NW 15 22 8 12 1009.6 1009.6 -
04/03:00am 11.7 - - - - W 11 17 6 9 1009.6 1009.6 -
04/02:30am 12.8 - - - - WSW 19 28 10 15 1009.3 1009.3 -
04/02:00am 13.0 - - - - W 19 32 10 17 1009.1 1009.1 -
04/01:30am 12.9 - - - - WSW 15 22 8 12 1008.7 1008.7 -
04/01:00am 12.7 - - - - W 15 22 8 12 1008.4 1008.4 -
04/12:30am 12.7 - - - - W 20 33 11 18 1008.4 1008.4 -
04/12:00am 12.6 - - - - WSW 19 30 10 16 1008.1 1008.1 -
 
Date/Time
EST
Temp
°C
App
Temp
°C
Dew
Point
Rel
Hum
%
Delta-T
°C
Wind Press
QNH
hPa
Press
MSL
hPa
Rain
since 9 am
mm
Dir
 
Spd
km/h
Gust
km/h
Spd
kts
Gust
kts
03/11:30pm 12.7 - - - - W 17 35 9 19 1008.1 1008.1 -
03/11:00pm 12.6 - - - - W 19 33 10 18 1007.9 1007.9 -
03/10:30pm 12.2 - - - - W 24 33 13 18 1007.8 1007.8 -
03/10:18pm 12.4 - - - - W 28 54 15 29 1007.6 1007.6 -
03/10:00pm 12.7 - - - - W 22 37 12 20 1007.4 1007.4 -
03/09:30pm 12.3 - - - - W 19 32 10 17 1007.0 1007.0 -
03/09:00pm 12.1 - - - - W 20 39 11 21 1006.5 1006.5 -
03/08:30pm 11.4 - - - - W 26 37 14 20 1006.2 1006.2 -
03/08:13pm 11.8 - - - - WSW 32 63 17 34 1006.0 1006.0 -
03/08:11pm 12.1 - - - - W 28 56 15 30 1005.8 1005.8 -
03/08:00pm 11.6 - - - - W 19 33 10 18 1005.6 1005.6 -
03/07:30pm 10.8 - - - - W 33 59 18 32 1005.4 1005.4 -
03/07:26pm 11.0 - - - - W 28 59 15 32 1005.4 1005.4 -
03/07:00pm 12.0 - - - - W 24 37 13 20 1004.5 1004.5 -
03/06:43pm 12.3 - - - - W 28 50 15 27 1004.4 1004.4 -
03/06:30pm 12.5 - - - - WSW 19 30 10 16 1003.9 1003.9 -
03/06:00pm 13.0 - - - - W 28 41 15 22 1003.6 1003.6 -
03/05:33pm 13.7 - - - - W 32 50 17 27 1002.8 1002.8 -
03/05:30pm 13.9 - - - - W 33 50 18 27 1002.8 1002.8 -
03/05:10pm 13.6 - - - - W 28 54 15 29 1002.4 1002.4 -
03/05:00pm 13.5 - - - - W 26 39 14 21 1002.5 1002.5 -
03/04:30pm 13.4 - - - - WSW 30 41 16 22 1001.9 1001.9 -
03/04:00pm 13.9 - - - - WSW 39 59 21 32 1001.4 1001.4 -
03/03:30pm 14.5 - - - - WSW 35 57 19 31 1000.8 1000.8 -
03/03:00pm 14.3 - - - - WSW 43 63 23 34 1000.3 1000.3 -
03/02:30pm 13.2 - - - - W 35 59 19 32 999.8 999.8 -
03/02:11pm 14.6 - - - - W 35 59 19 32 999.5 999.5 -
03/02:00pm 14.4 - - - - W 35 52 19 28 999.3 999.3 -
03/01:47pm 13.9 - - - - W 33 52 18 28 999.2 999.2 -

Other Formats:

Comma delimited format used in spreadsheet applications
http://www.bom.gov.au/fwo/IDV60801/IDV60801.95826.axf

JavaScript Object Notation format (JSON) in row-major order
http://www.bom.gov.au/fwo/IDV60801/IDV60801.95826.json